Time;durP1;ratioP1;P1;durP2;ratioP2;P2;SDS_P1;SDS_P2;PMS_P1;PMS_P2;Temp;Humidity;BMP_temperature;BMP_pressure;BME280_temperature;BME280_humidity;BME280_pressure;Samples;Min_cycle;Max_cycle;Signal;HPM_P1;HPM_P2
2022/01/19 00:00:54;;;;;;;17.27;8.85;;;1.80;99.90;;;;;;5042954;28;20048;-73
2022/01/19 00:03:19;;;;;;;17.90;9.15;;;1.70;99.90;;;;;;5040229;28;20379;-73
2022/01/19 00:05:45;;;;;;;17.40;9.45;;;1.70;99.90;;;;;;5041467;28;21279;-74
2022/01/19 00:08:16;;;;;;;18.50;9.10;;;1.60;99.90;;;;;;5040105;28;20099;-73
2022/01/19 00:10:43;;;;;;;17.02;8.90;;;1.50;99.90;;;;;;5038906;28;20032;-73
2022/01/19 00:13:09;;;;;;;15.90;7.95;;;1.50;99.90;;;;;;5038323;28;20027;-73
2022/01/19 00:15:34;;;;;;;12.88;8.10;;;1.50;99.90;;;;;;5041535;28;20510;-73
2022/01/19 00:18:00;;;;;;;14.90;8.32;;;1.40;99.90;;;;;;5046984;28;20029;-74
2022/01/19 00:20:27;;;;;;;15.52;8.00;;;1.50;99.90;;;;;;5046736;28;20112;-74
2022/01/19 00:22:54;;;;;;;17.60;8.07;;;1.40;99.90;;;;;;5039295;28;20021;-74
2022/01/19 00:25:20;;;;;;;21.73;9.10;;;1.40;99.90;;;;;;5043336;28;20037;-74
2022/01/19 00:27:46;;;;;;;16.58;8.40;;;1.40;99.90;;;;;;5046296;28;20134;-74
2022/01/19 00:30:12;;;;;;;21.80;8.95;;;1.40;99.90;;;;;;5041372;28;20025;-73
2022/01/19 00:32:38;;;;;;;19.10;8.80;;;1.30;99.90;;;;;;5042566;28;20104;-73
2022/01/19 00:35:05;;;;;;;19.25;8.77;;;1.30;99.90;;;;;;5039026;28;20108;-73
2022/01/19 00:37:31;;;;;;;18.15;8.68;;;1.30;99.90;;;;;;5040764;28;20029;-73
2022/01/19 00:39:57;;;;;;;19.00;9.07;;;1.30;99.90;;;;;;5041681;28;20025;-72
2022/01/19 00:42:23;;;;;;;19.35;8.95;;;1.30;99.90;;;;;;5041978;28;20075;-73
2022/01/19 00:44:49;;;;;;;17.30;8.85;;;1.20;99.90;;;;;;5040960;28;20027;-73
2022/01/19 00:47:16;;;;;;;18.77;9.23;;;1.30;99.90;;;;;;5038621;28;20103;-73
2022/01/19 00:49:42;;;;;;;19.15;8.82;;;1.20;99.90;;;;;;5039277;28;20401;-73
2022/01/19 00:52:13;;;;;;;18.92;9.25;;;1.20;99.90;;;;;;5041752;28;20025;-74
2022/01/19 00:54:39;;;;;;;18.75;9.25;;;1.20;99.90;;;;;;5041707;28;20022;-73
2022/01/19 00:57:06;;;;;;;19.88;8.38;;;1.20;99.90;;;;;;5039720;28;20075;-73
2022/01/19 00:59:32;;;;;;;18.98;8.80;;;1.20;99.90;;;;;;5040323;28;20427;-73
2022/01/19 01:01:58;;;;;;;16.65;8.23;;;1.20;99.90;;;;;;5038214;28;20064;-73
2022/01/19 01:04:24;;;;;;;17.40;8.88;;;1.20;99.90;;;;;;5041068;28;20026;-74
2022/01/19 01:06:49;;;;;;;16.92;7.80;;;1.20;99.90;;;;;;5034543;28;20029;-73
2022/01/19 01:09:15;;;;;;;15.65;7.78;;;1.20;99.90;;;;;;5038829;28;20087;-73
2022/01/19 01:11:57;;;;;;;14.65;7.55;;;1.20;99.90;;;;;;5035452;28;20490;-75
2022/01/19 01:17:13;;;;;;;17.92;8.23;;;1.30;99.90;;;;;;5042221;28;20100;-73
2022/01/19 01:19:39;;;;;;;14.75;7.22;;;1.40;99.90;;;;;;5044267;28;20013;-72
2022/01/19 01:22:04;;;;;;;17.33;7.35;;;1.40;99.90;;;;;;5036905;28;20105;-73
2022/01/19 01:24:30;;;;;;;16.05;6.57;;;1.60;99.90;;;;;;5039888;28;20021;-73
2022/01/19 01:26:56;;;;;;;15.68;7.20;;;1.50;99.90;;;;;;5038551;28;20075;-73
2022/01/19 01:29:22;;;;;;;14.13;7.18;;;1.60;99.90;;;;;;5042844;28;20035;-73
2022/01/19 01:31:48;;;;;;;18.00;6.95;;;1.60;99.90;;;;;;5031890;28;20084;-71
2022/01/19 01:34:14;;;;;;;17.38;7.18;;;1.70;99.90;;;;;;5040092;28;20025;-74
2022/01/19 01:36:39;;;;;;;13.18;6.82;;;1.70;99.90;;;;;;5038840;28;20029;-72
2022/01/19 01:39:05;;;;;;;19.98;7.82;;;1.70;99.90;;;;;;5038245;28;20026;-74
2022/01/19 01:41:31;;;;;;;15.85;7.22;;;1.70;99.90;;;;;;5042206;28;20033;-74
2022/01/19 01:43:56;;;;;;;17.33;7.88;;;1.80;99.90;;;;;;5033067;28;20044;-73
2022/01/19 01:46:35;;;;;;;15.30;7.60;;;1.80;99.90;;;;;;5042298;28;20329;-73
2022/01/19 01:49:00;;;;;;;18.58;7.75;;;1.80;99.90;;;;;;5035768;28;20383;-73
2022/01/19 01:54:10;;;;;;;21.35;9.07;;;1.80;99.90;;;;;;5032753;28;20082;-73
2022/01/19 01:56:36;;;;;;;23.70;9.13;;;1.80;99.90;;;;;;5031331;28;20026;-73
2022/01/19 01:59:02;;;;;;;17.55;9.10;;;1.70;99.90;;;;;;5032163;28;20496;-74
2022/01/19 02:01:28;;;;;;;17.88;8.95;;;1.70;99.90;;;;;;5038606;28;20057;-73
2022/01/19 02:03:54;;;;;;;23.65;10.55;;;1.70;99.90;;;;;;5039546;28;20446;-73
2022/01/19 02:23:00;;;;;;;18.75;8.05;;;1.50;99.90;;;;;;5041746;28;20175;-75
2022/01/19 02:25:31;;;;;;;19.02;9.43;;;1.50;99.90;;;;;;5036058;28;20021;-73
2022/01/19 02:31:33;;;;;;;21.13;8.85;;;1.40;99.90;;;;;;5037021;28;20094;-72
2022/01/19 02:41:42;;;;;;;20.00;9.65;;;1.10;99.90;;;;;;5040987;28;20037;-74
2022/01/19 02:44:11;;;;;;;17.73;7.95;;;1.00;99.90;;;;;;5038927;28;20091;-75
2022/01/19 02:49:17;;;;;;;18.90;8.68;;;0.90;99.90;;;;;;5037203;28;20051;-74
2022/01/19 02:51:44;;;;;;;17.80;8.50;;;0.90;99.90;;;;;;5041700;28;20029;-74
2022/01/19 02:54:15;;;;;;;19.95;8.18;;;0.90;99.90;;;;;;5033685;28;20107;-74
2022/01/19 02:56:48;;;;;;;18.60;8.82;;;0.80;99.90;;;;;;5037456;28;20026;-72
2022/01/19 02:59:45;;;;;;;20.38;8.85;;;0.80;99.90;;;;;;5037275;28;20032;-74
2022/01/19 03:10:16;;;;;;;21.10;8.52;;;0.70;99.90;;;;;;5039253;28;19916;-73
2022/01/19 03:12:41;;;;;;;19.02;8.77;;;0.60;99.90;;;;;;5033743;28;20037;-73
2022/01/19 03:15:09;;;;;;;19.67;7.72;;;0.60;99.90;;;;;;5033218;28;20041;-73
2022/01/19 03:17:35;;;;;;;17.05;8.20;;;0.60;99.90;;;;;;5034201;28;20037;-73
2022/01/19 03:20:00;;;;;;;23.13;8.60;;;0.60;99.90;;;;;;5039646;28;20021;-74
2022/01/19 03:22:34;;;;;;;20.75;9.00;;;0.50;99.90;;;;;;5037445;28;20025;-73
2022/01/19 03:25:00;;;;;;;19.30;9.23;;;0.50;99.90;;;;;;5037321;28;20028;-73
2022/01/19 03:27:25;;;;;;;21.33;8.48;;;0.50;99.90;;;;;;5035279;28;20078;-72
2022/01/19 03:29:51;;;;;;;22.02;8.63;;;0.50;99.90;;;;;;5036355;28;20033;-74
2022/01/19 03:32:17;;;;;;;18.92;8.05;;;0.50;99.90;;;;;;5034952;28;20025;-74
2022/01/19 03:34:42;;;;;;;27.08;9.90;;;0.40;99.90;;;;;;5037983;28;20039;-73
2022/01/19 03:37:08;;;;;;;16.50;8.75;;;0.40;99.90;;;;;;5033330;28;20051;-73
2022/01/19 03:39:34;;;;;;;15.55;8.48;;;0.50;99.90;;;;;;5039093;28;20500;-73
2022/01/19 03:42:04;;;;;;;19.30;8.57;;;0.50;99.90;;;;;;5039135;28;20025;-73
2022/01/19 03:44:30;;;;;;;22.02;9.50;;;0.50;99.90;;;;;;5037315;28;20035;-74
2022/01/19 03:46:58;;;;;;;21.58;9.52;;;0.50;99.90;;;;;;5036520;28;20028;-74
2022/01/19 03:49:27;;;;;;;17.30;8.85;;;0.60;99.90;;;;;;5030470;28;20052;-72
2022/01/19 03:51:58;;;;;;;16.35;8.48;;;0.60;99.90;;;;;;5041770;28;20112;-73
2022/01/19 03:54:41;;;;;;;18.85;8.43;;;0.70;99.90;;;;;;5036087;28;20401;-71
2022/01/19 03:57:07;;;;;;;21.23;8.63;;;0.80;99.90;;;;;;5038768;28;20025;-73
2022/01/19 03:59:32;;;;;;;23.33;10.02;;;0.90;99.90;;;;;;5036506;28;20032;-73
2022/01/19 04:01:59;;;;;;;18.73;8.38;;;1.00;99.90;;;;;;5041653;28;20025;-73
2022/01/19 04:04:35;;;;;;;20.98;9.15;;;1.10;99.90;;;;;;5038288;28;20052;-74
2022/01/19 04:07:09;;;;;;;;;;;;;;;;;;;;;
2022/01/19 04:09:45;;;;;;;19.02;8.45;;;1.20;99.90;;;;;;5045500;28;20112;-73
2022/01/19 04:12:16;;;;;;;18.20;8.45;;;1.30;99.90;;;;;;5042856;28;20021;-73
2022/01/19 04:14:42;;;;;;;18.95;9.10;;;1.30;99.90;;;;;;5047057;28;20025;-74
2022/01/19 04:17:10;;;;;;;18.30;8.88;;;1.30;99.90;;;;;;5048903;28;20032;-75
2022/01/19 04:22:07;;;;;;;18.92;9.38;;;1.40;99.90;;;;;;5046970;28;20104;-71
2022/01/19 04:24:33;;;;;;;18.45;8.88;;;1.40;99.90;;;;;;5044455;28;20052;-73
2022/01/19 04:29:50;;;;;;;19.98;9.02;;;1.50;99.90;;;;;;5042266;28;20045;-71
2022/01/19 04:32:21;;;;;;;17.50;9.13;;;1.50;99.90;;;;;;5047969;28;20606;-72
2022/01/19 04:34:49;;;;;;;18.63;8.65;;;1.50;99.90;;;;;;5045321;28;20445;-71
2022/01/19 05:04:08;;;;;;;20.42;11.68;;;1.60;99.90;;;;;;5040354;28;20033;-72
2022/01/19 05:06:39;;;;;;;21.55;9.90;;;1.60;99.90;;;;;;5046519;28;20026;-73
2022/01/19 05:09:22;;;;;;;19.85;9.43;;;1.60;99.90;;;;;;5054037;28;20021;-72
2022/01/19 05:14:32;;;;;;;;;;;1.70;99.90;;;;;;5044363;28;20028;-72
2022/01/19 05:16:58;;;;;;;17.45;8.93;;;1.70;99.90;;;;;;5041938;28;19916;-75
2022/01/19 05:19:23;;;;;;;20.70;10.30;;;1.70;99.90;;;;;;5045612;28;20030;-72
2022/01/19 05:21:49;;;;;;;21.25;10.05;;;1.70;99.90;;;;;;5042076;28;20086;-72
2022/01/19 05:24:15;;;;;;;19.25;9.95;;;1.70;99.90;;;;;;5051409;28;20075;-73
2022/01/19 05:26:41;;;;;;;18.42;9.63;;;1.70;99.90;;;;;;5053864;28;20040;-73
2022/01/19 05:29:07;;;;;;;19.48;10.27;;;1.70;99.90;;;;;;5041418;28;20478;-72
2022/01/19 05:31:33;;;;;;;22.15;9.45;;;1.70;99.90;;;;;;5047949;28;20048;-73
2022/01/19 05:33:59;;;;;;;21.45;9.82;;;1.70;99.90;;;;;;5050584;28;20033;-65
2022/01/19 05:36:25;;;;;;;21.25;10.23;;;1.80;99.90;;;;;;5037663;28;20041;-66
2022/01/19 05:38:50;;;;;;;19.05;10.50;;;2.10;99.90;;;;;;5039747;28;20083;-65
2022/01/19 05:41:16;;;;;;;16.25;9.55;;;2.30;99.90;;;;;;5038560;28;20026;-66
2022/01/19 05:43:42;;;;;;;18.30;10.57;;;2.50;99.90;;;;;;5034117;28;20025;-72
2022/01/19 05:46:08;;;;;;;18.08;10.02;;;2.60;99.90;;;;;;5039772;28;20025;-73
2022/01/19 05:48:34;;;;;;;17.42;9.88;;;2.50;99.90;;;;;;5051305;28;20155;-73
2022/01/19 05:51:00;;;;;;;19.90;9.90;;;2.30;99.90;;;;;;5048236;28;20029;-74
2022/01/19 05:53:25;;;;;;;18.38;10.32;;;2.20;99.90;;;;;;5043454;28;20029;-74
2022/01/19 05:55:51;;;;;;;16.20;9.48;;;2.00;99.90;;;;;;5045259;28;20031;-74
2022/01/19 05:58:17;;;;;;;21.92;11.10;;;1.90;99.90;;;;;;5047058;28;20019;-73
2022/01/19 06:00:42;;;;;;;21.80;10.88;;;1.80;99.90;;;;;;5047374;28;20068;-72
2022/01/19 06:03:08;;;;;;;18.88;10.95;;;1.70;99.90;;;;;;5051361;28;20029;-72
2022/01/19 06:05:34;;;;;;;19.55;10.52;;;1.60;99.90;;;;;;5041411;28;20099;-72
2022/01/19 06:08:17;;;;;;;19.67;9.75;;;1.50;99.90;;;;;;5031564;28;20029;-73
2022/01/19 06:10:47;;;;;;;20.38;10.30;;;1.40;99.90;;;;;;5041662;28;20037;-72
2022/01/19 06:13:18;;;;;;;19.08;10.52;;;1.30;99.90;;;;;;5036506;28;20517;-73
2022/01/19 06:15:45;;;;;;;22.95;10.77;;;1.30;99.90;;;;;;5051888;28;20098;-72
2022/01/19 06:18:11;;;;;;;22.50;11.25;;;1.20;99.90;;;;;;5048033;28;20028;-73
2022/01/19 06:20:37;;;;;;;20.77;11.07;;;1.10;99.90;;;;;;5041963;28;20048;-71
2022/01/19 06:23:03;;;;;;;20.17;10.60;;;1.00;99.90;;;;;;5043189;28;20022;-72
2022/01/19 06:25:29;;;;;;;21.20;10.77;;;1.00;99.90;;;;;;5056626;28;20039;-72
2022/01/19 06:27:54;;;;;;;22.42;11.90;;;1.00;99.90;;;;;;5047343;28;20025;-72
2022/01/19 06:30:20;;;;;;;20.17;11.35;;;0.90;99.90;;;;;;5042185;28;20067;-71
2022/01/19 06:32:46;;;;;;;21.90;10.85;;;0.90;99.90;;;;;;5040874;28;20087;-73
2022/01/19 06:35:12;;;;;;;24.42;11.50;;;0.80;99.90;;;;;;5038918;28;20029;-72
2022/01/19 06:37:38;;;;;;;21.90;11.13;;;0.80;99.90;;;;;;5047636;28;20071;-72
2022/01/19 06:40:07;;;;;;;23.38;11.65;;;0.80;99.90;;;;;;5045160;28;20029;-72
2022/01/19 06:42:34;;;;;;;24.63;11.38;;;0.80;99.90;;;;;;5044994;28;20035;-74
2022/01/19 06:44:59;;;;;;;26.85;12.50;;;0.70;99.90;;;;;;5037279;28;20069;-72
2022/01/19 06:47:25;;;;;;;20.77;10.80;;;0.70;99.90;;;;;;5038349;28;20068;-73
2022/01/19 06:49:50;;;;;;;25.13;11.45;;;0.60;99.90;;;;;;5032888;28;20021;-73
2022/01/19 06:52:16;;;;;;;20.83;10.70;;;0.50;99.90;;;;;;5035276;28;20078;-72
2022/01/19 06:54:42;;;;;;;23.10;11.90;;;0.50;99.90;;;;;;5040199;28;20053;-73
2022/01/19 06:57:08;;;;;;;20.20;11.20;;;0.40;99.90;;;;;;5039597;28;20104;-72
2022/01/19 06:59:34;;;;;;;23.98;11.82;;;0.40;99.90;;;;;;5042992;28;20539;-71
2022/01/19 07:01:59;;;;;;;21.80;11.38;;;0.30;99.90;;;;;;5037507;28;20386;-73
2022/01/19 07:04:25;;;;;;;19.75;11.15;;;0.20;99.90;;;;;;5040005;28;20382;-73
2022/01/19 07:06:51;;;;;;;20.77;10.55;;;0.20;99.90;;;;;;5035449;28;20025;-72
2022/01/19 07:09:16;;;;;;;21.85;12.02;;;0.20;99.90;;;;;;5038690;28;20028;-72
2022/01/19 07:11:42;;;;;;;25.98;11.77;;;0.20;99.90;;;;;;5037255;28;20372;-76
2022/01/19 07:14:17;;;;;;;27.90;12.00;;;0.10;99.90;;;;;;5040620;28;20686;-74
2022/01/19 07:16:44;;;;;;;22.67;11.40;;;0.10;99.90;;;;;;5041838;28;20457;-74
2022/01/19 07:19:10;;;;;;;21.30;11.60;;;0.10;99.90;;;;;;5035829;28;20065;-73
2022/01/19 07:21:36;;;;;;;22.95;10.27;;;0.10;99.90;;;;;;5039874;28;20033;-71
2022/01/19 07:24:02;;;;;;;25.08;11.45;;;0.00;99.90;;;;;;5039679;28;20021;-72
2022/01/19 07:26:28;;;;;;;24.40;11.10;;;0.00;99.90;;;;;;5045833;28;20021;-73
2022/01/19 07:28:53;;;;;;;22.42;11.43;;;0.00;99.90;;;;;;5043577;28;20028;-72
2022/01/19 07:31:19;;;;;;;23.70;11.27;;;0.00;99.90;;;;;;5043924;28;20030;-72
2022/01/19 07:33:45;;;;;;;24.17;10.27;;;0.10;99.90;;;;;;5038855;28;20426;-73
2022/01/19 07:36:10;;;;;;;23.52;10.88;;;0.00;99.90;;;;;;5038179;28;20036;-73
2022/01/19 07:38:36;;;;;;;25.08;11.98;;;0.00;99.90;;;;;;5034508;28;20052;-73
2022/01/19 07:41:02;;;;;;;24.67;11.63;;;0.00;99.90;;;;;;5037941;28;20025;-73
2022/01/19 07:43:28;;;;;;;26.02;12.02;;;0.00;99.90;;;;;;5036627;28;20112;-72
2022/01/19 07:45:54;;;;;;;24.15;11.85;;;-0.10;99.90;;;;;;5039727;28;20120;-72
2022/01/19 07:48:19;;;;;;;23.27;12.13;;;0.00;99.90;;;;;;5036186;28;20072;-73
2022/01/19 07:50:45;;;;;;;26.88;12.30;;;0.00;99.90;;;;;;5038571;28;20099;-73
2022/01/19 07:53:11;;;;;;;21.98;11.82;;;0.00;99.90;;;;;;5040276;28;20510;-72
2022/01/19 07:55:37;;;;;;;25.60;12.55;;;0.00;99.90;;;;;;5037522;28;20121;-73
2022/01/19 07:58:03;;;;;;;26.35;13.40;;;0.10;99.90;;;;;;5036291;28;20028;-72
2022/01/19 08:00:29;;;;;;;27.00;12.98;;;0.10;99.90;;;;;;5043147;28;20024;-73
2022/01/19 08:02:55;;;;;;;26.70;13.50;;;0.10;99.90;;;;;;5040363;28;20029;-73
2022/01/19 08:05:21;;;;;;;23.70;12.65;;;0.20;99.90;;;;;;5035383;28;20028;-72
2022/01/19 08:07:47;;;;;;;25.05;12.45;;;0.20;99.90;;;;;;5045776;28;20040;-73
2022/01/19 08:10:13;;;;;;;29.20;12.90;;;0.30;99.90;;;;;;5038492;28;20026;-73
2022/01/19 08:12:38;;;;;;;28.52;13.85;;;0.30;99.90;;;;;;5034532;28;20416;-73
2022/01/19 08:15:05;;;;;;;33.83;15.48;;;0.30;99.90;;;;;;5044625;28;20032;-73
2022/01/19 08:17:32;;;;;;;32.30;14.23;;;0.40;99.90;;;;;;5033550;28;20179;-73
2022/01/19 08:19:57;;;;;;;28.55;13.77;;;0.50;99.90;;;;;;5045413;28;20028;-73
2022/01/19 08:22:24;;;;;;;27.05;14.40;;;0.60;99.90;;;;;;5043704;28;20115;-72
2022/01/19 08:24:50;;;;;;;27.13;13.98;;;0.60;99.90;;;;;;5050791;28;20477;-73
2022/01/19 08:27:17;;;;;;;30.85;14.38;;;0.60;99.90;;;;;;5039327;28;20505;-73
2022/01/19 08:29:43;;;;;;;32.08;15.07;;;0.70;99.90;;;;;;5046003;28;20551;-73
2022/01/19 08:32:08;;;;;;;26.70;13.82;;;0.70;99.90;;;;;;5040789;28;20025;-73
2022/01/19 08:34:34;;;;;;;31.60;13.60;;;0.80;99.90;;;;;;5042568;28;20385;-72
2022/01/19 08:37:01;;;;;;;26.52;13.40;;;0.80;99.90;;;;;;5045891;28;20061;-72
2022/01/19 08:39:27;;;;;;;27.02;13.52;;;0.90;99.90;;;;;;5044461;28;20029;-73
2022/01/19 08:41:53;;;;;;;29.60;14.15;;;0.90;99.90;;;;;;5047629;28;20017;-73
2022/01/19 08:44:21;;;;;;;27.10;13.23;;;1.00;99.90;;;;;;5047522;28;20053;-73
2022/01/19 08:46:47;;;;;;;25.75;12.18;;;1.10;99.90;;;;;;5053238;28;20021;-73
2022/01/19 08:49:14;;;;;;;28.20;12.48;;;1.10;99.90;;;;;;5042999;28;20030;-73
2022/01/19 08:51:40;;;;;;;23.85;12.90;;;1.20;99.90;;;;;;5042537;28;20017;-74
2022/01/19 08:54:06;;;;;;;27.40;12.45;;;1.20;99.90;;;;;;5048762;28;20034;-73
2022/01/19 08:56:32;;;;;;;23.23;13.30;;;1.30;99.90;;;;;;5045796;28;20378;-73
2022/01/19 08:58:58;;;;;;;19.85;11.13;;;1.40;99.90;;;;;;5049299;28;20017;-73
2022/01/19 09:01:24;;;;;;;24.00;11.60;;;1.50;99.90;;;;;;5047511;28;20098;-72
2022/01/19 09:03:49;;;;;;;22.35;12.15;;;1.60;99.90;;;;;;5049159;28;20051;-74
2022/01/19 09:06:15;;;;;;;18.98;10.48;;;1.60;99.90;;;;;;5049035;28;20024;-73
2022/01/19 09:08:41;;;;;;;19.23;10.15;;;1.70;99.90;;;;;;5047085;28;20068;-73
2022/01/19 09:11:08;;;;;;;20.33;11.02;;;1.70;99.90;;;;;;5040429;28;20017;-74
2022/01/19 09:13:34;;;;;;;21.55;11.45;;;1.80;99.90;;;;;;5046664;28;20112;-75
2022/01/19 09:16:00;;;;;;;22.95;11.63;;;1.90;99.90;;;;;;5052721;28;20112;-75
2022/01/19 09:18:26;;;;;;;20.77;11.48;;;1.90;99.90;;;;;;5047676;28;20018;-75
2022/01/19 09:20:52;;;;;;;23.33;11.32;;;1.90;99.90;;;;;;5034963;28;20111;-74
2022/01/19 09:23:18;;;;;;;23.90;11.15;;;2.00;99.90;;;;;;5042600;28;20555;-75
2022/01/19 09:25:43;;;;;;;21.73;10.82;;;2.00;99.90;;;;;;5053838;28;20037;-76
2022/01/19 09:28:09;;;;;;;20.70;11.13;;;2.10;99.90;;;;;;5052384;28;20094;-76
2022/01/19 09:30:36;;;;;;;19.33;11.23;;;2.20;99.90;;;;;;5054145;28;20099;-75
2022/01/19 09:33:18;;;;;;;18.55;11.23;;;2.20;99.90;;;;;;5052377;28;20543;-74
2022/01/19 09:38:25;;;;;;;19.67;10.65;;;2.20;99.90;;;;;;5051805;28;20557;-74
2022/01/19 09:40:51;;;;;;;18.33;9.40;;;2.30;99.90;;;;;;5043526;28;20048;-73
2022/01/19 09:43:21;;;;;;;18.50;9.57;;;2.40;99.90;;;;;;5040686;28;20479;-74
2022/01/19 09:45:55;;;;;;;16.52;10.18;;;2.40;99.90;;;;;;5047700;28;20077;-74
2022/01/19 09:48:21;;;;;;;19.30;10.00;;;2.50;99.90;;;;;;5086892;23;21635;-72
2022/01/19 09:50:46;;;;;;;18.92;10.30;;;2.50;99.90;;;;;;5048970;28;20021;-72
2022/01/19 09:53:12;;;;;;;17.33;9.55;;;2.50;99.90;;;;;;5046753;28;20021;-72
2022/01/19 09:55:39;;;;;;;17.30;8.82;;;2.50;99.90;;;;;;5050071;28;20086;-72
2022/01/19 09:58:06;;;;;;;21.55;10.18;;;2.60;99.90;;;;;;5052659;28;20021;-73
2022/01/19 10:00:31;;;;;;;14.95;8.93;;;2.60;99.90;;;;;;5063787;28;20033;-72
2022/01/19 10:03:26;;;;;;;16.17;9.48;;;2.60;99.90;;;;;;5066132;28;20073;-72
2022/01/19 10:06:03;;;;;;;16.38;8.80;;;2.70;99.90;;;;;;5067394;28;20029;-73
2022/01/19 10:08:42;;;;;;;16.17;8.57;;;2.70;99.90;;;;;;5061753;28;20033;-73
2022/01/19 10:11:20;;;;;;;19.85;9.60;;;2.80;99.90;;;;;;5058762;28;20033;-72
2022/01/19 10:16:59;;;;;;;21.48;8.73;;;2.80;99.90;;;;;;5068628;28;20119;-72
2022/01/19 10:19:35;;;;;;;15.15;8.82;;;2.90;99.90;;;;;;5064110;28;20593;-72
2022/01/19 10:22:06;;;;;;;15.52;8.60;;;2.90;99.90;;;;;;5077274;28;20052;-73
2022/01/19 10:24:38;;;;;;;14.77;8.68;;;3.00;99.90;;;;;;5070158;28;20094;-72
2022/01/19 10:27:27;;;;;;;18.67;8.15;;;3.00;99.90;;;;;;5058881;28;20097;-72
2022/01/19 10:30:04;;;;;;;16.27;9.15;;;3.10;99.90;;;;;;5066212;28;20033;-73
2022/01/19 10:32:33;;;;;;;17.48;9.23;;;3.10;99.90;;;;;;5067728;28;20450;-73
2022/01/19 10:35:19;;;;;;;17.90;9.55;;;3.20;99.90;;;;;;5065642;28;20495;-74
2022/01/19 10:37:46;;;;;;;16.13;8.40;;;3.20;99.90;;;;;;5067630;28;20020;-73
2022/01/19 10:40:19;;;;;;;15.50;8.98;;;3.30;99.90;;;;;;5068489;28;20111;-74
2022/01/19 10:42:47;;;;;;;16.38;8.90;;;3.30;99.90;;;;;;5066908;28;20542;-73
2022/01/19 10:45:14;;;;;;;18.33;9.50;;;3.40;99.90;;;;;;5067821;28;20107;-74
2022/01/19 10:47:43;;;;;;;20.08;9.75;;;3.40;99.90;;;;;;5060280;28;20029;-72
2022/01/19 10:50:30;;;;;;;18.85;9.20;;;3.40;99.90;;;;;;5063820;28;20040;-73
2022/01/19 10:52:59;;;;;;;19.13;8.82;;;3.40;99.90;;;;;;5063959;28;20044;-73
2022/01/19 10:55:38;;;;;;;14.90;8.35;;;3.50;99.90;;;;;;5058704;28;20123;-73
2022/01/19 10:58:10;;;;;;;14.00;8.70;;;3.60;99.90;;;;;;5065734;28;20047;-73
2022/01/19 11:00:36;;;;;;;18.95;9.20;;;3.60;99.90;;;;;;5063712;28;20526;-74
2022/01/19 11:03:19;;;;;;;15.20;8.48;;;3.70;99.90;;;;;;5057484;28;20024;-73
2022/01/19 11:05:50;;;;;;;16.58;9.13;;;3.80;99.90;;;;;;5070664;28;20081;-74
2022/01/19 11:08:19;;;;;;;14.95;8.05;;;3.90;99.90;;;;;;5064244;28;20435;-73
2022/01/19 11:10:49;;;;;;;14.40;7.50;;;3.90;99.90;;;;;;5065332;28;20056;-74
2022/01/19 11:13:25;;;;;;;13.10;7.50;;;4.00;99.90;;;;;;5053191;28;20315;-73
2022/01/19 11:15:51;;;;;;;14.02;7.03;;;4.10;99.90;;;;;;5066659;28;20122;-73
2022/01/19 11:18:18;;;;;;;15.13;7.00;;;4.20;99.90;;;;;;5065563;28;20021;-74
2022/01/19 11:20:46;;;;;;;13.45;7.10;;;4.20;99.90;;;;;;5063608;28;20020;-73
2022/01/19 11:23:49;;;;;;;13.10;6.65;;;4.30;99.90;;;;;;5066465;28;20033;-74
2022/01/19 11:26:17;;;;;;;13.30;6.85;;;4.40;99.90;;;;;;5067118;28;20082;-73
2022/01/19 11:28:46;;;;;;;15.57;7.20;;;4.60;99.90;;;;;;5064292;28;20025;-73
2022/01/19 11:31:24;;;;;;;14.60;7.50;;;4.60;99.90;;;;;;5062661;28;20476;-73
2022/01/19 11:33:53;;;;;;;13.00;6.80;;;4.60;99.90;;;;;;5065336;28;20031;-73
2022/01/19 11:36:34;;;;;;;11.98;7.00;;;4.70;99.90;;;;;;5069039;28;20063;-72
2022/01/19 11:39:05;;;;;;;12.63;6.28;;;4.80;99.90;;;;;;5056345;28;20082;-72
2022/01/19 11:41:37;;;;;;;12.43;6.57;;;4.80;99.90;;;;;;5065131;28;20032;-71
2022/01/19 11:44:04;;;;;;;9.77;5.53;;;4.90;99.90;;;;;;5069382;28;20097;-72
2022/01/19 11:46:32;;;;;;;11.50;6.25;;;5.00;99.90;;;;;;5065810;28;20032;-71
2022/01/19 11:49:04;;;;;;;11.57;6.70;;;5.00;99.90;;;;;;5059000;28;20544;-72
2022/01/19 11:51:35;;;;;;;12.32;6.32;;;5.10;99.90;;;;;;5059374;28;20029;-70
2022/01/19 11:54:12;;;;;;;12.43;6.43;;;5.20;99.90;;;;;;5066059;28;20070;-70
2022/01/19 11:56:59;;;;;;;13.65;6.13;;;5.20;99.90;;;;;;5068756;28;20029;-70
2022/01/19 11:59:29;;;;;;;10.18;5.68;;;5.30;99.90;;;;;;5068741;28;20361;-70
2022/01/19 12:02:21;;;;;;;11.50;7.00;;;5.40;99.90;;;;;;5071029;28;20031;-71
2022/01/19 12:05:16;;;;;;;12.90;7.55;;;5.40;99.90;;;;;;5068027;28;20028;-72
2022/01/19 12:07:48;;;;;;;12.73;6.82;;;5.40;99.90;;;;;;5064310;28;20033;-72
2022/01/19 12:10:20;;;;;;;11.77;5.82;;;5.40;99.90;;;;;;5067117;28;20024;-71
2022/01/19 12:13:25;;;;;;;16.25;7.15;;;5.50;99.90;;;;;;5065161;28;20033;-72
2022/01/19 12:15:57;;;;;;;16.10;7.45;;;5.50;99.90;;;;;;5067573;28;20487;-71
2022/01/19 12:18:50;;;;;;;10.65;5.90;;;5.60;99.90;;;;;;5067028;28;20035;-72
2022/01/19 12:21:37;;;;;;;10.75;5.50;;;5.60;99.90;;;;;;5067709;28;20074;-72
2022/01/19 12:24:44;;;;;;;11.82;6.53;;;5.70;99.90;;;;;;5065585;28;20024;-72
2022/01/19 12:27:15;;;;;;;12.43;6.03;;;5.90;99.90;;;;;;5011932;28;20025;-72
2022/01/19 12:29:42;;;;;;;9.80;5.93;;;5.90;99.90;;;;;;5057448;28;20503;-71
2022/01/19 12:32:17;;;;;;;11.80;6.00;;;6.00;99.90;;;;;;5070384;28;20035;-72
2022/01/19 12:34:57;;;;;;;9.35;5.55;;;6.00;99.90;;;;;;5075246;28;20116;-72
2022/01/19 12:37:41;;;;;;;10.88;6.35;;;6.10;99.90;;;;;;5061822;28;20029;-73
2022/01/19 12:40:13;;;;;;;13.25;7.00;;;6.10;99.90;;;;;;5062577;28;20505;-71
2022/01/19 12:43:09;;;;;;;13.18;6.80;;;6.10;99.90;;;;;;5062331;28;20151;-71
2022/01/19 12:45:48;;;;;;;13.32;6.65;;;6.10;99.90;;;;;;5057613;28;20036;-72
2022/01/19 12:48:31;;;;;;;13.48;7.68;;;6.10;99.90;;;;;;5061267;28;20179;-74
2022/01/19 12:50:56;;;;;;;14.00;7.35;;;6.10;99.90;;;;;;5067242;28;20025;-73
2022/01/19 12:53:25;;;;;;;13.00;7.63;;;6.10;99.90;;;;;;5062827;28;20420;-73
2022/01/19 12:55:54;;;;;;;18.40;7.97;;;6.10;99.90;;;;;;5066131;28;20062;-72
2022/01/19 12:58:27;;;;;;;15.98;7.55;;;6.10;99.90;;;;;;5066980;28;20166;-73
2022/01/19 13:00:56;;;;;;;15.32;8.20;;;6.10;99.90;;;;;;5065059;28;20028;-73
2022/01/19 13:03:32;;;;;;;15.75;8.27;;;6.10;99.90;;;;;;5067447;28;20074;-72
2022/01/19 13:06:05;;;;;;;16.63;8.20;;;6.10;99.90;;;;;;5063317;28;20375;-72
2022/01/19 13:08:44;;;;;;;14.38;8.00;;;6.10;99.90;;;;;;5067102;28;20029;-74
2022/01/19 13:11:54;;;;;;;17.25;8.50;;;6.10;99.90;;;;;;5063304;28;20025;-74
2022/01/19 13:14:17;;;;;;;13.10;7.93;;;6.20;99.90;;;;;;5065997;28;20503;-71
2022/01/19 13:16:48;;;;;;;14.40;8.02;;;6.20;99.90;;;;;;5066519;28;20060;-72
2022/01/19 13:19:16;;;;;;;17.67;8.02;;;6.30;99.90;;;;;;5065828;28;20021;-73
2022/01/19 13:21:49;;;;;;;13.68;7.25;;;6.30;99.90;;;;;;5070576;28;20021;-73
2022/01/19 13:24:24;;;;;;;15.55;8.35;;;6.40;99.90;;;;;;5068690;28;20365;-74
2022/01/19 13:26:55;;;;;;;17.25;8.73;;;6.40;99.90;;;;;;5065159;28;20025;-73
2022/01/19 13:29:25;;;;;;;15.35;8.40;;;6.40;99.90;;;;;;5064194;28;20069;-73
2022/01/19 13:32:03;;;;;;;16.85;9.05;;;6.40;99.90;;;;;;5070267;28;20025;-74
2022/01/19 13:34:32;;;;;;;17.33;9.65;;;6.40;99.90;;;;;;5063526;28;20051;-73
2022/01/19 13:37:00;;;;;;;16.42;9.38;;;6.40;99.90;;;;;;5063081;28;20024;-73
2022/01/19 13:39:28;;;;;;;18.02;9.57;;;6.30;99.90;;;;;;5068214;28;20078;-75
2022/01/19 13:41:57;;;;;;;20.88;10.80;;;6.30;99.90;;;;;;5066570;28;20099;-72
2022/01/19 13:44:38;;;;;;;18.85;9.95;;;6.30;99.90;;;;;;5064139;28;20028;-72
2022/01/19 13:47:11;;;;;;;19.50;10.27;;;6.30;99.90;;;;;;5055562;28;20104;-73
2022/01/19 13:49:38;;;;;;;18.27;9.68;;;6.20;99.90;;;;;;5057590;28;20107;-72
2022/01/19 13:52:05;;;;;;;18.90;9.93;;;6.20;99.90;;;;;;5062490;28;20402;-72
2022/01/19 13:54:31;;;;;;;16.48;9.25;;;6.10;99.90;;;;;;5068743;28;20105;-73
2022/01/19 13:57:01;;;;;;;18.48;9.80;;;5.90;99.90;;;;;;5065663;28;20029;-73
2022/01/19 13:59:27;;;;;;;19.42;10.00;;;5.80;99.90;;;;;;5060932;28;20039;-73
2022/01/19 14:01:59;;;;;;;17.50;9.40;;;5.70;99.90;;;;;;5066021;28;20020;-73
2022/01/19 14:04:27;;;;;;;18.98;8.48;;;5.50;99.90;;;;;;5065539;28;20029;-72
2022/01/19 14:07:00;;;;;;;17.45;8.68;;;5.50;99.90;;;;;;5063808;28;20108;-72
2022/01/19 14:09:31;;;;;;;16.70;8.23;;;5.40;99.90;;;;;;5063995;28;20465;-72
2022/01/19 14:12:01;;;;;;;15.70;8.70;;;5.40;99.90;;;;;;5056844;28;20033;-73
2022/01/19 14:14:35;;;;;;;18.88;9.27;;;5.30;99.90;;;;;;5064595;28;20097;-72
2022/01/19 14:17:03;;;;;;;22.65;11.02;;;5.30;99.90;;;;;;5061790;28;20031;-73
2022/01/19 14:19:31;;;;;;;22.02;10.73;;;5.30;99.90;;;;;;5065621;28;20544;-72
2022/01/19 14:22:14;;;;;;;21.60;11.65;;;5.30;99.90;;;;;;5064743;28;20377;-72